This is the latest recevied weather packets stored in our database for station/object LA9UTA-13. If no packets are shown the sender has not sent any weather packets the latest 10 day(s).
| Time | Temp. | Humidity | Pressure | Rain* | Wind** | Luminosity | Snow |
|---|---|---|---|---|---|---|---|
| 1777567082 | 20.56° C | 33% | 1024.7 hPa | 0 mm | - | 154 W/m² | - |
| 1777565882 | 20.56° C | 35% | 1024.7 hPa | 0 mm | - | 164 W/m² | - |
| 1777564682 | 21.67° C | 34% | 1024.6 hPa | 0 mm | - | 229 W/m² | - |
| 1777562282 | 22.78° C | 33% | 1024.4 hPa | 0 mm | - | 287 W/m² | - |
| 1777561083 | 21.67° C | 33% | 1024.6 hPa | 0 mm | - | 278 W/m² | - |
| 1777559882 | 23.33° C | 31% | 1024.4 hPa | 0 mm | - | 327 W/m² | - |
| 1777558682 | 23.89° C | 29% | 1025.4 hPa | 0 mm | - | 409 W/m² | - |
| 1777557482 | 23.89° C | 29% | 1025.5 hPa | 0 mm | - | 430 W/m² | - |
| 1777556282 | 23.33° C | 30% | 1025.5 hPa | 0 mm | - | 397 W/m² | - |
| 1777555082 | 23.33° C | 29% | 1025.5 hPa | 0 mm | - | 52 W/m² | - |
| 1777553882 | 22.22° C | 32% | 1025.6 hPa | 0 mm | - | 52 W/m² | - |
| 1777552682 | 21.67° C | 32% | 1026.7 hPa | 0 mm | - | 53 W/m² | - |
| 1777551482 | 22.22° C | 31% | 1026.6 hPa | 0 mm | - | 523 W/m² | - |
| 1777550282 | 21.11° C | 34% | 1026.7 hPa | 0 mm | - | 532 W/m² | - |
| 1777549082 | 21.67° C | 32% | 1026.7 hPa | 0 mm | - | 537 W/m² | - |
| 1777547882 | 20.56° C | 33% | 1026.8 hPa | 0 mm | - | 539 W/m² | - |
| 1777546682 | 20° C | 34% | 1026.8 hPa | 0 mm | - | 535 W/m² | - |
| 1777545481 | 20° C | 34% | 1026.9 hPa | 0 mm | - | 529 W/m² | - |
| 1777544282 | 19.44° C | 34% | 1026.9 hPa | 0 mm | - | 520 W/m² | - |
| 1777543082 | 18.89° C | 36% | 1027 hPa | 0 mm | - | 505 W/m² | - |
| 1777541882 | 20° C | 35% | 1027.8 hPa | 0 mm | - | 487 W/m² | - |
| 1777540682 | 19.44° C | 40% | 1027.9 hPa | 0 mm | - | 467 W/m² | - |
| 1777539481 | 18.33° C | 42% | 1028 hPa | 0 mm | - | 441 W/m² | - |
| 1777538282 | 18.33° C | 44% | 1028 hPa | 0 mm | - | 377 W/m² | - |
| 1777537081 | 17.22° C | 45% | 1028.1 hPa | 0 mm | - | 377 W/m² | - |
* Rain latest hour (hover to see other rain measurements)
** Current wind speed in m/s (hover to see current wind gust speed)